sensor_id;sensor_type;location;lat;lon;timestamp;pressure;altitude;pressure_sealevel;temperature;humidity
11077;BME280;5591;42.626;23.380;2023-03-18T00:02:04;94567.19;;;1.71;100.00
11077;BME280;5591;42.626;23.380;2023-03-18T00:04:30;94560.91;;;1.73;100.00
11077;BME280;5591;42.626;23.380;2023-03-18T00:06:57;94501.28;;;1.45;100.00
11077;BME280;5591;42.626;23.380;2023-03-18T00:09:24;94555.81;;;1.62;100.00
11077;BME280;5591;42.626;23.380;2023-03-18T00:11:51;94557.72;;;1.60;100.00
11077;BME280;5591;42.626;23.380;2023-03-18T00:14:18;94548.56;;;1.56;100.00
11077;BME280;5591;42.626;23.380;2023-03-18T00:16:45;94551.22;;;1.66;100.00
11077;BME280;5591;42.626;23.380;2023-03-18T00:19:14;94548.75;;;1.64;100.00
11077;BME280;5591;42.626;23.380;2023-03-18T00:21:42;94553.50;;;1.59;100.00
11077;BME280;5591;42.626;23.380;2023-03-18T00:24:09;94548.56;;;1.56;100.00
11077;BME280;5591;42.626;23.380;2023-03-18T00:26:36;94550.41;;;1.45;100.00
11077;BME280;5591;42.626;23.380;2023-03-18T00:29:04;94536.91;;;1.41;100.00
11077;BME280;5591;42.626;23.380;2023-03-18T00:31:32;94544.66;;;1.41;100.00
11077;BME280;5591;42.626;23.380;2023-03-18T00:33:58;94541.50;;;1.38;100.00
11077;BME280;5591;42.626;23.380;2023-03-18T00:36:26;94542.38;;;1.48;100.00
11077;BME280;5591;42.626;23.380;2023-03-18T00:38:55;94538.72;;;1.50;100.00
11077;BME280;5591;42.626;23.380;2023-03-18T00:41:24;94528.66;;;1.47;100.00
11077;BME280;5591;42.626;23.380;2023-03-18T00:43:52;94486.19;;;1.20;100.00
11077;BME280;5591;42.626;23.380;2023-03-18T00:46:21;94528.91;;;1.44;100.00
11077;BME280;5591;42.626;23.380;2023-03-18T00:48:49;94522.47;;;1.39;100.00
11077;BME280;5591;42.626;23.380;2023-03-18T00:51:17;94519.63;;;1.42;100.00
11077;BME280;5591;42.626;23.380;2023-03-18T00:53:47;94511.69;;;1.34;100.00
11077;BME280;5591;42.626;23.380;2023-03-18T00:56:17;94479.84;;;1.13;100.00
11077;BME280;5591;42.626;23.380;2023-03-18T00:58:44;94504.38;;;1.39;100.00
11077;BME280;5591;42.626;23.380;2023-03-18T01:01:12;94508.16;;;1.35;100.00
11077;BME280;5591;42.626;23.380;2023-03-18T01:03:40;94506.41;;;1.35;100.00
11077;BME280;5591;42.626;23.380;2023-03-18T01:06:08;94508.09;;;1.25;100.00
11077;BME280;5591;42.626;23.380;2023-03-18T01:08:37;94501.00;;;1.18;100.00
11077;BME280;5591;42.626;23.380;2023-03-18T01:11:05;94505.63;;;1.24;100.00
11077;BME280;5591;42.626;23.380;2023-03-18T01:13:33;94499.66;;;1.23;100.00
11077;BME280;5591;42.626;23.380;2023-03-18T01:16:00;94408.84;;;0.66;100.00
11077;BME280;5591;42.626;23.380;2023-03-18T01:18:27;94497.63;;;1.27;100.00
11077;BME280;5591;42.626;23.380;2023-03-18T01:20:54;94495.81;;;1.18;100.00
11077;BME280;5591;42.626;23.380;2023-03-18T01:23:21;94496.50;;;1.20;100.00
11077;BME280;5591;42.626;23.380;2023-03-18T01:25:48;94491.84;;;1.14;100.00
11077;BME280;5591;42.626;23.380;2023-03-18T01:28:17;94492.53;;;1.16;100.00
11077;BME280;5591;42.626;23.380;2023-03-18T01:30:43;94485.56;;;1.07;100.00
11077;BME280;5591;42.626;23.380;2023-03-18T01:33:11;94491.72;;;1.15;100.00
11077;BME280;5591;42.626;23.380;2023-03-18T01:35:37;94482.81;;;1.08;100.00
11077;BME280;5591;42.626;23.380;2023-03-18T01:38:05;94489.19;;;1.04;100.00
11077;BME280;5591;42.626;23.380;2023-03-18T01:40:34;94486.25;;;1.09;100.00
11077;BME280;5591;42.626;23.380;2023-03-18T01:43:18;94485.66;;;1.05;100.00
11077;BME280;5591;42.626;23.380;2023-03-18T01:45:48;94483.19;;;1.04;100.00
11077;BME280;5591;42.626;23.380;2023-03-18T01:48:16;94489.88;;;1.06;100.00
11077;BME280;5591;42.626;23.380;2023-03-18T01:50:45;94401.41;;;0.52;100.00
11077;BME280;5591;42.626;23.380;2023-03-18T01:53:15;94451.88;;;0.77;100.00
11077;BME280;5591;42.626;23.380;2023-03-18T01:55:46;94485.59;;;0.96;100.00
11077;BME280;5591;42.626;23.380;2023-03-18T01:58:18;94480.19;;;0.99;100.00
11077;BME280;5591;42.626;23.380;2023-03-18T02:00:50;94399.38;;;0.35;100.00
11077;BME280;5591;42.626;23.380;2023-03-18T02:03:19;94475.59;;;0.71;100.00
11077;BME280;5591;42.626;23.380;2023-03-18T02:05:47;94474.91;;;0.69;100.00
11077;BME280;5591;42.626;23.380;2023-03-18T02:08:15;94475.16;;;0.66;100.00
11077;BME280;5591;42.626;23.380;2023-03-18T02:10:42;94470.59;;;0.69;100.00
11077;BME280;5591;42.626;23.380;2023-03-18T02:13:11;94449.25;;;0.56;100.00
11077;BME280;5591;42.626;23.380;2023-03-18T02:15:48;94463.22;;;0.65;100.00
11077;BME280;5591;42.626;23.380;2023-03-18T02:18:19;94465.53;;;0.68;100.00
11077;BME280;5591;42.626;23.380;2023-03-18T02:21:03;94460.41;;;0.57;100.00
11077;BME280;5591;42.626;23.380;2023-03-18T02:23:42;94458.09;;;0.54;100.00
11077;BME280;5591;42.626;23.380;2023-03-18T02:26:15;94471.13;;;0.52;100.00
11077;BME280;5591;42.626;23.380;2023-03-18T02:28:47;94385.78;;;0.02;100.00
11077;BME280;5591;42.626;23.380;2023-03-18T02:31:15;94472.75;;;0.53;100.00
11077;BME280;5591;42.626;23.380;2023-03-18T02:33:43;94469.47;;;0.51;100.00
11077;BME280;5591;42.626;23.380;2023-03-18T02:36:14;94469.31;;;0.53;100.00
11077;BME280;5591;42.626;23.380;2023-03-18T02:38:44;94425.00;;;0.27;100.00
11077;BME280;5591;42.626;23.380;2023-03-18T02:41:16;94465.00;;;0.53;100.00
11077;BME280;5591;42.626;23.380;2023-03-18T02:43:44;94450.25;;;0.44;100.00
11077;BME280;5591;42.626;23.380;2023-03-18T02:46:25;94467.00;;;0.50;100.00
11077;BME280;5591;42.626;23.380;2023-03-18T02:48:53;94463.72;;;0.48;100.00
11077;BME280;5591;42.626;23.380;2023-03-18T02:51:20;94460.72;;;0.43;100.00
11077;BME280;5591;42.626;23.380;2023-03-18T02:53:48;94466.69;;;0.43;100.00
11077;BME280;5591;42.626;23.380;2023-03-18T02:56:15;94459.56;;;0.36;100.00
11077;BME280;5591;42.626;23.380;2023-03-18T02:58:42;94462.72;;;0.39;100.00
11077;BME280;5591;42.626;23.380;2023-03-18T03:01:09;94460.59;;;0.33;100.00
11077;BME280;5591;42.626;23.380;2023-03-18T03:03:38;94459.91;;;0.31;100.00
11077;BME280;5591;42.626;23.380;2023-03-18T03:06:06;94459.31;;;0.39;100.00
11077;BME280;5591;42.626;23.380;2023-03-18T03:08:33;94465.44;;;0.27;100.00
11077;BME280;5591;42.626;23.380;2023-03-18T03:11:00;94460.59;;;0.33;100.00
11077;BME280;5591;42.626;23.380;2023-03-18T03:13:27;94463.34;;;0.32;100.00
11077;BME280;5591;42.626;23.380;2023-03-18T03:15:54;94460.97;;;0.29;100.00
11077;BME280;5591;42.626;23.380;2023-03-18T03:18:21;94466.13;;;0.29;100.00
11077;BME280;5591;42.626;23.380;2023-03-18T03:20:50;94465.56;;;0.25;100.00
11077;BME280;5591;42.626;23.380;2023-03-18T03:23:17;94464.84;;;0.23;100.00
11077;BME280;5591;42.626;23.380;2023-03-18T03:25:44;94462.78;;;0.17;100.00
11077;BME280;5591;42.626;23.380;2023-03-18T03:28:12;94471.81;;;0.12;100.00
11077;BME280;5591;42.626;23.380;2023-03-18T03:30:41;94475.09;;;0.14;100.00
11077;BME280;5591;42.626;23.380;2023-03-18T03:33:08;94471.59;;;0.04;100.00
11077;BME280;5591;42.626;23.380;2023-03-18T03:35:36;94482.94;;;0.12;100.00
11077;BME280;5591;42.626;23.380;2023-03-18T03:38:05;94474.94;;;0.15;100.00
11077;BME280;5591;42.626;23.380;2023-03-18T03:40:32;94475.09;;;0.14;100.00
11077;BME280;5591;42.626;23.380;2023-03-18T03:42:59;94482.94;;;0.12;100.00
11077;BME280;5591;42.626;23.380;2023-03-18T03:45:27;94486.00;;;0.17;100.00
11077;BME280;5591;42.626;23.380;2023-03-18T03:47:54;94476.72;;;0.15;100.00
11077;BME280;5591;42.626;23.380;2023-03-18T03:50:21;94473.91;;;0.18;100.00
11077;BME280;5591;42.626;23.380;2023-03-18T03:52:48;94475.09;;;0.14;100.00
11077;BME280;5591;42.626;23.380;2023-03-18T03:55:18;94473.94;;;0.07;100.00
11077;BME280;5591;42.626;23.380;2023-03-18T03:57:46;94494.47;;;-0.03;100.00
11077;BME280;5591;42.626;23.380;2023-03-18T04:00:16;94474.97;;;0.04;100.00
11077;BME280;5591;42.626;23.380;2023-03-18T04:02:46;94478.38;;;0.05;100.00
11077;BME280;5591;42.626;23.380;2023-03-18T04:05:16;94482.16;;;0.01;100.00
11077;BME280;5591;42.626;23.380;2023-03-18T04:07:44;94444.31;;;-0.31;100.00
11077;BME280;5591;42.626;23.380;2023-03-18T04:10:13;94487.19;;;-0.08;100.00
11077;BME280;5591;42.626;23.380;2023-03-18T04:12:42;94492.69;;;-0.02;100.00
11077;BME280;5591;42.626;23.380;2023-03-18T04:15:10;94490.34;;;-0.05;100.00
11077;BME280;5591;42.626;23.380;2023-03-18T04:17:38;94496.69;;;0.02;100.00
11077;BME280;5591;42.626;23.380;2023-03-18T04:20:06;94501.72;;;-0.08;100.00
11077;BME280;5591;42.626;23.380;2023-03-18T04:22:33;94511.22;;;-0.08;100.00
11077;BME280;5591;42.626;23.380;2023-03-18T04:25:00;94512.19;;;-0.31;100.00
11077;BME280;5591;42.626;23.380;2023-03-18T04:27:27;94518.38;;;-0.22;100.00
11077;BME280;5591;42.626;23.380;2023-03-18T04:29:55;94518.97;;;-0.19;100.00
11077;BME280;5591;42.626;23.380;2023-03-18T04:32:22;94520.63;;;-0.18;100.00
11077;BME280;5591;42.626;23.380;2023-03-18T04:34:49;94515.56;;;-0.19;100.00
11077;BME280;5591;42.626;23.380;2023-03-18T04:37:18;94522.69;;;-0.23;100.00
11077;BME280;5591;42.626;23.380;2023-03-18T04:39:45;94491.19;;;-0.37;100.00
11077;BME280;5591;42.626;23.380;2023-03-18T04:42:12;94524.34;;;-0.22;100.00
11077;BME280;5591;42.626;23.380;2023-03-18T04:44:39;94520.38;;;-0.15;100.00
11077;BME280;5591;42.626;23.380;2023-03-18T04:47:07;94523.88;;;0.06;100.00
11077;BME280;5591;42.626;23.380;2023-03-18T04:49:34;94527.41;;;-0.06;100.00
11077;BME280;5591;42.626;23.380;2023-03-18T04:52:02;94530.09;;;-0.08;100.00
11077;BME280;5591;42.626;23.380;2023-03-18T04:54:29;94534.53;;;-0.09;100.00
11077;BME280;5591;42.626;23.380;2023-03-18T04:56:56;94537.63;;;-0.15;100.00
11077;BME280;5591;42.626;23.380;2023-03-18T04:59:23;94529.97;;;0.16;100.00
11077;BME280;5591;42.626;23.380;2023-03-18T05:01:50;94536.38;;;0.32;100.00
11077;BME280;5591;42.626;23.380;2023-03-18T05:04:19;94534.78;;;0.63;100.00
11077;BME280;5591;42.626;23.380;2023-03-18T05:06:46;94531.50;;;0.61;100.00
11077;BME280;5591;42.626;23.380;2023-03-18T05:09:13;94530.59;;;0.51;100.00
11077;BME280;5591;42.626;23.380;2023-03-18T05:11:40;94527.06;;;0.52;100.00
11077;BME280;5591;42.626;23.380;2023-03-18T05:14:07;94529.75;;;0.61;100.00
11077;BME280;5591;42.626;23.380;2023-03-18T05:16:34;94533.59;;;0.67;100.00
11077;BME280;5591;42.626;23.380;2023-03-18T05:19:01;94525.81;;;0.78;100.00
11077;BME280;5591;42.626;23.380;2023-03-18T05:21:29;94522.22;;;0.69;100.00
11077;BME280;5591;42.626;23.380;2023-03-18T05:23:56;94526.16;;;0.84;100.00
11077;BME280;5591;42.626;23.380;2023-03-18T05:26:23;94528.94;;;0.92;100.00
11077;BME280;5591;42.626;23.380;2023-03-18T05:28:50;94524.16;;;1.08;100.00
11077;BME280;5591;42.626;23.380;2023-03-18T05:31:17;94523.47;;;1.27;100.00
11077;BME280;5591;42.626;23.380;2023-03-18T05:33:44;94524.06;;;1.51;100.00
11077;BME280;5591;42.626;23.380;2023-03-18T05:36:11;94518.34;;;1.57;100.00
11077;BME280;5591;42.626;23.380;2023-03-18T05:38:40;94524.69;;;1.73;100.00
11077;BME280;5591;42.626;23.380;2023-03-18T05:41:07;94528.53;;;1.99;100.00
11077;BME280;5591;42.626;23.380;2023-03-18T05:43:34;94519.31;;;2.16;100.00
11077;BME280;5591;42.626;23.380;2023-03-18T05:46:01;94526.03;;;2.28;100.00
11077;BME280;5591;42.626;23.380;2023-03-18T05:48:28;94516.97;;;2.61;100.00
11077;BME280;5591;42.626;23.380;2023-03-18T05:50:56;94529.94;;;2.71;100.00
11077;BME280;5591;42.626;23.380;2023-03-18T05:53:23;94531.75;;;2.99;100.00
11077;BME280;5591;42.626;23.380;2023-03-18T05:55:52;94525.47;;;3.20;100.00
11077;BME280;5591;42.626;23.380;2023-03-18T05:58:18;94523.84;;;3.19;100.00
11077;BME280;5591;42.626;23.380;2023-03-18T06:00:45;94534.03;;;3.49;100.00
11077;BME280;5591;42.626;23.380;2023-03-18T06:03:12;94532.13;;;3.61;100.00
11077;BME280;5591;42.626;23.380;2023-03-18T06:05:39;94544.81;;;3.64;100.00
11077;BME280;5591;42.626;23.380;2023-03-18T06:08:06;94549.84;;;3.75;100.00
11077;BME280;5591;42.626;23.380;2023-03-18T06:10:33;94555.19;;;3.64;100.00
11077;BME280;5591;42.626;23.380;2023-03-18T06:13:01;94539.19;;;3.68;100.00
11077;BME280;5591;42.626;23.380;2023-03-18T06:15:28;94542.88;;;3.75;100.00
11077;BME280;5591;42.626;23.380;2023-03-18T06:17:56;94540.41;;;3.74;100.00
11077;BME280;5591;42.626;23.380;2023-03-18T06:20:23;94553.44;;;3.45;100.00
11077;BME280;5591;42.626;23.380;2023-03-18T06:22:50;94549.59;;;3.59;100.00
11077;BME280;5591;42.626;23.380;2023-03-18T06:25:19;94550.66;;;4.21;100.00
11077;BME280;5591;42.626;23.380;2023-03-18T06:27:46;94544.63;;;4.57;100.00
11077;BME280;5591;42.626;23.380;2023-03-18T06:30:15;94548.09;;;4.48;100.00
11077;BME280;5591;42.626;23.380;2023-03-18T06:32:43;94544.19;;;4.62;100.00
11077;BME280;5591;42.626;23.380;2023-03-18T06:35:10;94543.31;;;4.71;100.00
11077;BME280;5591;42.626;23.380;2023-03-18T06:37:38;94535.34;;;4.99;100.00
11077;BME280;5591;42.626;23.380;2023-03-18T06:40:07;94529.34;;;5.16;100.00
11077;BME280;5591;42.626;23.380;2023-03-18T06:42:34;94525.47;;;5.20;100.00
11077;BME280;5591;42.626;23.380;2023-03-18T06:45:02;94525.53;;;4.93;100.00
11077;BME280;5591;42.626;23.380;2023-03-18T06:47:30;94520.25;;;5.02;100.00
11077;BME280;5591;42.626;23.380;2023-03-18T06:49:57;94515.66;;;5.31;100.00
11077;BME280;5591;42.626;23.380;2023-03-18T06:52:24;94516.00;;;5.36;100.00
11077;BME280;5591;42.626;23.380;2023-03-18T06:54:51;94527.47;;;5.26;100.00
11077;BME280;5591;42.626;23.380;2023-03-18T06:57:18;94519.94;;;5.58;100.00
11077;BME280;5591;42.626;23.380;2023-03-18T06:59:46;94519.03;;;5.67;100.00
11077;BME280;5591;42.626;23.380;2023-03-18T07:02:13;94519.47;;;6.05;100.00
11077;BME280;5591;42.626;23.380;2023-03-18T07:04:42;94536.94;;;5.87;100.00
11077;BME280;5591;42.626;23.380;2023-03-18T07:07:09;94513.50;;;6.13;100.00
11077;BME280;5591;42.626;23.380;2023-03-18T07:09:36;94523.00;;;6.55;100.00
11077;BME280;5591;42.626;23.380;2023-03-18T07:12:03;94518.78;;;6.62;100.00
11077;BME280;5591;42.626;23.380;2023-03-18T07:14:30;94522.72;;;6.66;100.00
11077;BME280;5591;42.626;23.380;2023-03-18T07:16:57;94520.41;;;6.63;100.00
11077;BME280;5591;42.626;23.380;2023-03-18T07:19:25;94519.34;;;6.82;100.00
11077;BME280;5591;42.626;23.380;2023-03-18T07:21:53;94508.22;;;6.80;100.00
11077;BME280;5591;42.626;23.380;2023-03-18T07:24:21;94517.13;;;7.03;100.00
11077;BME280;5591;42.626;23.380;2023-03-18T07:26:48;94517.53;;;6.82;100.00
11077;BME280;5591;42.626;23.380;2023-03-18T07:29:16;94517.75;;;6.97;100.00
11077;BME280;5591;42.626;23.380;2023-03-18T07:31:43;94474.84;;;6.91;100.00
11077;BME280;5591;42.626;23.380;2023-03-18T07:34:10;94518.75;;;7.12;100.00
11077;BME280;5591;42.626;23.380;2023-03-18T07:36:37;94519.22;;;6.99;100.00
11077;BME280;5591;42.626;23.380;2023-03-18T07:39:07;94526.88;;;7.01;100.00
11077;BME280;5591;42.626;23.380;2023-03-18T07:41:34;94539.94;;;7.09;100.00
11077;BME280;5591;42.626;23.380;2023-03-18T07:44:02;94525.44;;;6.98;100.00
11077;BME280;5591;42.626;23.380;2023-03-18T07:46:29;94529.00;;;7.05;100.00
11077;BME280;5591;42.626;23.380;2023-03-18T07:48:55;94525.72;;;6.95;100.00
11077;BME280;5591;42.626;23.380;2023-03-18T07:51:22;94532.19;;;6.75;100.00
11077;BME280;5591;42.626;23.380;2023-03-18T07:53:49;94535.88;;;7.14;100.00
11077;BME280;5591;42.626;23.380;2023-03-18T07:56:17;94529.88;;;7.29;100.00
11077;BME280;5591;42.626;23.380;2023-03-18T07:58:44;94525.00;;;7.50;100.00
11077;BME280;5591;42.626;23.380;2023-03-18T08:01:12;94528.13;;;7.62;100.00
11077;BME280;5591;42.626;23.380;2023-03-18T08:03:40;94530.59;;;6.82;100.00
11077;BME280;5591;42.626;23.380;2023-03-18T08:06:08;94527.34;;;6.96;100.00
11077;BME280;5591;42.626;23.380;2023-03-18T08:08:35;94527.59;;;7.42;100.00
11077;BME280;5591;42.626;23.380;2023-03-18T08:11:03;94523.91;;;6.88;100.00
11077;BME280;5591;42.626;23.380;2023-03-18T08:13:31;94520.97;;;6.41;100.00
11077;BME280;5591;42.626;23.380;2023-03-18T08:15:58;94515.84;;;6.57;100.00
11077;BME280;5591;42.626;23.380;2023-03-18T08:18:25;94515.50;;;7.33;100.00
11077;BME280;5591;42.626;23.380;2023-03-18T08:20:51;94513.41;;;7.85;100.00
11077;BME280;5591;42.626;23.380;2023-03-18T08:23:19;94518.13;;;7.65;100.00
11077;BME280;5591;42.626;23.380;2023-03-18T08:25:46;94529.06;;;8.17;100.00
11077;BME280;5591;42.626;23.380;2023-03-18T08:28:14;94537.41;;;8.04;100.00
11077;BME280;5591;42.626;23.380;2023-03-18T08:30:42;94520.44;;;7.92;100.00
11077;BME280;5591;42.626;23.380;2023-03-18T08:33:09;94531.34;;;8.36;100.00
11077;BME280;5591;42.626;23.380;2023-03-18T08:35:38;94522.72;;;8.66;99.34
11077;BME280;5591;42.626;23.380;2023-03-18T08:38:06;94529.50;;;8.44;96.55
11077;BME280;5591;42.626;23.380;2023-03-18T08:40:33;94533.59;;;8.85;94.81
11077;BME280;5591;42.626;23.380;2023-03-18T08:43:00;94522.03;;;9.10;91.78
11077;BME280;5591;42.626;23.380;2023-03-18T08:45:27;94434.19;;;7.92;93.31
11077;BME280;5591;42.626;23.380;2023-03-18T08:47:56;94524.28;;;8.44;94.80
11077;BME280;5591;42.626;23.380;2023-03-18T08:50:23;94523.91;;;8.55;95.47
11077;BME280;5591;42.626;23.380;2023-03-18T08:52:53;94523.75;;;8.95;94.86
11077;BME280;5591;42.626;23.380;2023-03-18T08:55:22;94521.06;;;9.34;92.47
11077;BME280;5591;42.626;23.380;2023-03-18T08:57:49;94512.09;;;9.28;89.75
11077;BME280;5591;42.626;23.380;2023-03-18T09:00:18;94445.69;;;9.21;88.26
11077;BME280;5591;42.626;23.380;2023-03-18T09:02:45;94498.38;;;9.49;86.21
11077;BME280;5591;42.626;23.380;2023-03-18T09:05:14;94525.00;;;9.60;86.32
11077;BME280;5591;42.626;23.380;2023-03-18T09:07:42;94532.06;;;9.29;88.09
11077;BME280;5591;42.626;23.380;2023-03-18T09:10:10;94528.63;;;9.73;85.19
11077;BME280;5591;42.626;23.380;2023-03-18T09:12:39;94525.78;;;9.83;83.56
11077;BME280;5591;42.626;23.380;2023-03-18T09:15:07;94528.28;;;10.36;80.86
11077;BME280;5591;42.626;23.380;2023-03-18T09:17:35;94533.66;;;9.83;78.86
11077;BME280;5591;42.626;23.380;2023-03-18T09:20:06;94538.19;;;9.44;79.54
11077;BME280;5591;42.626;23.380;2023-03-18T09:22:35;94542.50;;;10.04;79.09
11077;BME280;5591;42.626;23.380;2023-03-18T09:25:02;94539.69;;;10.57;75.03
11077;BME280;5591;42.626;23.380;2023-03-18T09:27:29;94538.81;;;10.13;72.13
11077;BME280;5591;42.626;23.380;2023-03-18T09:29:55;94534.88;;;10.46;69.24
11077;BME280;5591;42.626;23.380;2023-03-18T09:32:22;94533.19;;;10.82;64.90
11077;BME280;5591;42.626;23.380;2023-03-18T09:34:49;94535.88;;;10.89;62.92
11077;BME280;5591;42.626;23.380;2023-03-18T09:37:17;94466.03;;;10.44;59.39
11077;BME280;5591;42.626;23.380;2023-03-18T09:39:46;94532.88;;;10.92;59.00
11077;BME280;5591;42.626;23.380;2023-03-18T09:42:25;94535.97;;;10.81;58.19
11077;BME280;5591;42.626;23.380;2023-03-18T09:44:56;94527.59;;;11.21;55.88
11077;BME280;5591;42.626;23.380;2023-03-18T09:47:44;94534.16;;;11.31;54.10
11077;BME280;5591;42.626;23.380;2023-03-18T09:50:25;94529.25;;;11.57;53.98
11077;BME280;5591;42.626;23.380;2023-03-18T09:53:07;94523.28;;;11.70;54.41
11077;BME280;5591;42.626;23.380;2023-03-18T09:55:41;94522.66;;;11.89;54.65
11077;BME280;5591;42.626;23.380;2023-03-18T09:58:18;94527.44;;;12.27;53.32
11077;BME280;5591;42.626;23.380;2023-03-18T10:00:47;94523.13;;;12.74;52.37
11077;BME280;5591;42.626;23.380;2023-03-18T10:03:22;94520.00;;;12.31;53.50
11077;BME280;5591;42.626;23.380;2023-03-18T10:05:54;94536.25;;;11.92;53.06
11077;BME280;5591;42.626;23.380;2023-03-18T10:08:34;94525.34;;;12.43;53.36
11077;BME280;5591;42.626;23.380;2023-03-18T10:11:12;94525.91;;;12.94;51.04
11077;BME280;5591;42.626;23.380;2023-03-18T10:13:46;94525.13;;;11.90;51.29
11077;BME280;5591;42.626;23.380;2023-03-18T10:16:20;94529.34;;;10.99;54.72
11077;BME280;5591;42.626;23.380;2023-03-18T10:18:48;94530.88;;;11.44;55.01
11077;BME280;5591;42.626;23.380;2023-03-18T10:21:19;94522.03;;;11.30;51.79
11077;BME280;5591;42.626;23.380;2023-03-18T10:23:54;94527.19;;;11.74;48.77
11077;BME280;5591;42.626;23.380;2023-03-18T10:26:29;94500.81;;;11.46;48.03
11077;BME280;5591;42.626;23.380;2023-03-18T10:29:06;94532.13;;;11.83;47.45
11077;BME280;5591;42.626;23.380;2023-03-18T10:31:49;94532.03;;;11.20;48.25
11077;BME280;5591;42.626;23.380;2023-03-18T10:34:21;94530.03;;;11.58;47.88
11077;BME280;5591;42.626;23.380;2023-03-18T10:36:54;94524.91;;;11.50;48.29
11077;BME280;5591;42.626;23.380;2023-03-18T10:39:23;94531.81;;;11.36;48.39
11077;BME280;5591;42.626;23.380;2023-03-18T10:41:54;94532.56;;;11.51;47.50
11077;BME280;5591;42.626;23.380;2023-03-18T10:44:26;94528.16;;;11.52;48.08
11077;BME280;5591;42.626;23.380;2023-03-18T10:46:57;94523.19;;;11.78;49.13
11077;BME280;5591;42.626;23.380;2023-03-18T10:49:28;94526.34;;;12.42;47.80
11077;BME280;5591;42.626;23.380;2023-03-18T10:52:03;94521.50;;;12.19;47.27
11077;BME280;5591;42.626;23.380;2023-03-18T10:54:35;94527.03;;;12.03;46.14
11077;BME280;5591;42.626;23.380;2023-03-18T10:57:05;94517.34;;;12.31;46.79
11077;BME280;5591;42.626;23.380;2023-03-18T10:59:32;94513.13;;;12.63;44.84
11077;BME280;5591;42.626;23.380;2023-03-18T11:02:02;94515.97;;;12.96;42.79
11077;BME280;5591;42.626;23.380;2023-03-18T11:04:35;94502.00;;;13.55;41.66
11077;BME280;5591;42.626;23.380;2023-03-18T11:07:06;94496.16;;;13.92;41.70
11077;BME280;5591;42.626;23.380;2023-03-18T11:09:38;94505.13;;;14.69;40.62
11077;BME280;5591;42.626;23.380;2023-03-18T11:12:14;94502.47;;;13.18;42.02
11077;BME280;5591;42.626;23.380;2023-03-18T11:14:46;94505.94;;;14.05;41.09
11077;BME280;5591;42.626;23.380;2023-03-18T11:17:21;94421.81;;;13.30;41.63
11077;BME280;5591;42.626;23.380;2023-03-18T11:20:00;94512.53;;;12.95;41.61
11077;BME280;5591;42.626;23.380;2023-03-18T11:22:32;94510.13;;;13.00;40.83
11077;BME280;5591;42.626;23.380;2023-03-18T11:25:03;94511.31;;;12.98;41.37
11077;BME280;5591;42.626;23.380;2023-03-18T11:27:37;94511.84;;;11.77;43.18
11077;BME280;5591;42.626;23.380;2023-03-18T11:30:12;94511.34;;;12.09;43.82
11077;BME280;5591;42.626;23.380;2023-03-18T11:32:50;94504.63;;;12.95;42.92
11077;BME280;5591;42.626;23.380;2023-03-18T11:35:19;94507.19;;;12.89;41.82
11077;BME280;5591;42.626;23.380;2023-03-18T11:37:46;94494.28;;;12.94;42.21
11077;BME280;5591;42.626;23.380;2023-03-18T11:40:19;94497.78;;;12.73;42.45
11077;BME280;5591;42.626;23.380;2023-03-18T11:42:53;94510.38;;;13.12;42.01
11077;BME280;5591;42.626;23.380;2023-03-18T11:45:34;94498.50;;;12.88;42.36
11077;BME280;5591;42.626;23.380;2023-03-18T11:48:05;94495.25;;;12.93;42.30
11077;BME280;5591;42.626;23.380;2023-03-18T11:50:43;94421.06;;;12.09;43.92
11077;BME280;5591;42.626;23.380;2023-03-18T11:53:23;94498.38;;;13.03;43.83
11077;BME280;5591;42.626;23.380;2023-03-18T11:55:57;94491.53;;;15.22;40.59
11077;BME280;5591;42.626;23.380;2023-03-18T11:58:58;94487.03;;;17.14;38.06
11077;BME280;5591;42.626;23.380;2023-03-18T12:01:30;94474.66;;;17.62;36.42
11077;BME280;5591;42.626;23.380;2023-03-18T12:04:17;94479.66;;;18.63;34.71
11077;BME280;5591;42.626;23.380;2023-03-18T12:06:58;94522.78;;;15.51;37.46
11077;BME280;5591;42.626;23.380;2023-03-18T12:09:37;94486.09;;;15.11;38.57
11077;BME280;5591;42.626;23.380;2023-03-18T12:12:19;94496.19;;;13.99;40.57
11077;BME280;5591;42.626;23.380;2023-03-18T12:14:57;94499.66;;;14.19;40.29
11077;BME280;5591;42.626;23.380;2023-03-18T12:17:31;94495.19;;;15.28;38.99
11077;BME280;5591;42.626;23.380;2023-03-18T12:23:19;94488.47;;;17.81;35.32
11077;BME280;5591;42.626;23.380;2023-03-18T12:25:59;94451.22;;;16.51;36.09
11077;BME280;5591;42.626;23.380;2023-03-18T12:28:35;94460.28;;;15.88;37.13
11077;BME280;5591;42.626;23.380;2023-03-18T12:31:33;94491.00;;;16.44;37.13
11077;BME280;5591;42.626;23.380;2023-03-18T12:34:03;94490.91;;;17.36;35.72
11077;BME280;5591;42.626;23.380;2023-03-18T12:36:44;94487.06;;;18.20;34.48
11077;BME280;5591;42.626;23.380;2023-03-18T12:39:41;94474.16;;;19.78;32.86
11077;BME280;5591;42.626;23.380;2023-03-18T12:42:16;94474.72;;;19.80;32.77
11077;BME280;5591;42.626;23.380;2023-03-18T12:44:57;94487.28;;;17.48;34.99
11077;BME280;5591;42.626;23.380;2023-03-18T12:47:30;94418.56;;;16.75;34.81
11077;BME280;5591;42.626;23.380;2023-03-18T12:50:02;94431.34;;;16.42;36.02
11077;BME280;5591;42.626;23.380;2023-03-18T12:52:35;94481.53;;;17.15;35.58
11077;BME280;5591;42.626;23.380;2023-03-18T12:55:10;94481.28;;;17.70;34.73
11077;BME280;5591;42.626;23.380;2023-03-18T12:57:41;94487.28;;;18.82;33.10
11077;BME280;5591;42.626;23.380;2023-03-18T13:00:17;94485.09;;;19.65;32.39
11077;BME280;5591;42.626;23.380;2023-03-18T13:02:50;94479.16;;;20.02;32.19
11077;BME280;5591;42.626;23.380;2023-03-18T13:05:31;94463.94;;;20.80;31.10
11077;BME280;5591;42.626;23.380;2023-03-18T13:11:09;94463.78;;;21.24;29.75
11077;BME280;5591;42.626;23.380;2023-03-18T13:13:42;94487.09;;;20.14;30.25
11077;BME280;5591;42.626;23.380;2023-03-18T13:16:12;94484.56;;;17.19;33.73
11077;BME280;5591;42.626;23.380;2023-03-18T13:18:43;94484.41;;;16.29;34.19
11077;BME280;5591;42.626;23.380;2023-03-18T13:21:13;94479.94;;;15.23;35.78